Time;durP1;ratioP1;P1;durP2;ratioP2;P2;SDS_P1;SDS_P2;PMS_P1;PMS_P2;Temp;Humidity;BMP_temperature;BMP_pressure;BME280_temperature;BME280_humidity;BME280_pressure;Samples;Min_cycle;Max_cycle;Signal;HPM_P1;HPM_P2
2024/04/08 00:01:23;;;;;;;7.40;3.40;;;14.30;99.90;;;;;;5064960;28;20044;-68
2024/04/08 00:03:49;;;;;;;16.67;3.63;;;14.30;99.90;;;;;;5063656;28;20024;-69
2024/04/08 00:06:15;;;;;;;8.27;3.22;;;14.20;99.90;;;;;;5065038;28;20041;-68
2024/04/08 00:08:40;;;;;;;8.77;3.45;;;14.20;99.90;;;;;;5064814;28;20024;-70
2024/04/08 00:11:07;;;;;;;9.30;3.28;;;14.20;99.90;;;;;;5064494;28;20040;-68
2024/04/08 00:13:39;;;;;;;8.02;3.10;;;14.20;99.90;;;;;;5065074;28;20055;-69
2024/04/08 00:16:06;;;;;;;10.35;3.88;;;14.20;99.90;;;;;;5064070;28;20084;-69
2024/04/08 00:18:31;;;;;;;7.80;3.50;;;14.20;99.90;;;;;;5064503;28;20040;-69
2024/04/08 00:21:04;;;;;;;9.23;3.25;;;14.20;99.90;;;;;;5064598;28;20114;-69
2024/04/08 00:23:31;;;;;;;9.02;3.22;;;14.20;99.90;;;;;;5063981;28;20027;-68
2024/04/08 00:26:04;;;;;;;12.68;3.45;;;14.20;99.90;;;;;;5063727;28;20020;-69
2024/04/08 00:28:30;;;;;;;7.97;3.60;;;14.20;99.90;;;;;;5063080;28;20025;-68
2024/04/08 00:31:05;;;;;;;10.65;3.22;;;14.10;99.90;;;;;;5064844;28;20120;-69
2024/04/08 00:33:32;;;;;;;9.43;3.17;;;14.10;99.90;;;;;;5061060;28;20024;-70
2024/04/08 00:35:58;;;;;;;8.38;2.72;;;14.10;99.90;;;;;;5065461;28;20082;-68
2024/04/08 00:38:24;;;;;;;6.47;2.83;;;14.10;99.90;;;;;;5063795;28;20520;-69
2024/04/08 00:40:50;;;;;;;8.98;3.05;;;14.00;99.90;;;;;;5064289;28;20021;-68
2024/04/08 00:43:15;;;;;;;6.70;2.65;;;14.00;99.90;;;;;;5064164;28;20021;-69
2024/04/08 00:45:42;;;;;;;6.10;3.15;;;14.00;99.90;;;;;;5063768;28;20036;-69
2024/04/08 00:48:09;;;;;;;6.53;3.53;;;13.90;99.90;;;;;;5064298;28;20690;-70
2024/04/08 00:50:39;;;;;;;7.55;3.50;;;13.90;99.90;;;;;;5063973;28;20017;-70
2024/04/08 00:53:05;;;;;;;13.95;3.25;;;13.90;99.90;;;;;;5063940;28;20032;-70
2024/04/08 00:55:34;;;;;;;8.27;3.40;;;13.80;99.90;;;;;;5062818;28;20420;-69
2024/04/08 00:58:00;;;;;;;7.68;3.92;;;13.90;99.90;;;;;;5063410;28;20462;-70
2024/04/08 01:00:25;;;;;;;8.95;3.90;;;13.90;99.90;;;;;;5063938;28;20028;-70
2024/04/08 01:02:53;;;;;;;9.63;3.53;;;13.90;99.90;;;;;;5062542;28;20043;-70
2024/04/08 01:05:18;;;;;;;7.40;3.25;;;13.90;99.90;;;;;;5063632;28;20016;-69
2024/04/08 01:07:45;;;;;;;8.82;3.72;;;13.90;99.90;;;;;;5063448;28;20032;-70
2024/04/08 01:10:11;;;;;;;8.00;3.38;;;14.00;99.90;;;;;;5063814;28;20096;-70
2024/04/08 01:12:41;;;;;;;6.50;3.67;;;14.00;99.90;;;;;;5063361;28;20032;-70
2024/04/08 01:15:07;;;;;;;7.93;4.07;;;14.00;99.90;;;;;;5063217;28;20048;-69
2024/04/08 01:17:32;;;;;;;6.47;3.50;;;14.00;99.90;;;;;;5063170;28;20090;-70
2024/04/08 01:19:58;;;;;;;8.57;4.00;;;14.00;99.90;;;;;;5062654;28;20080;-69
2024/04/08 01:22:23;;;;;;;8.85;3.50;;;13.90;99.90;;;;;;5063499;28;20025;-70
2024/04/08 01:24:49;;;;;;;9.48;3.80;;;14.00;99.90;;;;;;5063382;28;20043;-69
2024/04/08 01:27:14;;;;;;;7.97;3.42;;;13.90;99.90;;;;;;5063065;28;20099;-70
2024/04/08 01:29:40;;;;;;;10.10;3.47;;;13.90;99.90;;;;;;5063663;28;20059;-69
2024/04/08 01:32:06;;;;;;;13.93;3.35;;;13.90;99.90;;;;;;5062538;28;20024;-69
2024/04/08 01:34:31;;;;;;;9.27;4.18;;;13.90;99.90;;;;;;5063247;28;20029;-69
2024/04/08 01:36:57;;;;;;;7.95;4.10;;;13.90;99.90;;;;;;5063195;28;20087;-69
2024/04/08 01:39:24;;;;;;;7.30;4.35;;;13.90;99.90;;;;;;5062640;28;20482;-70
2024/04/08 01:41:49;;;;;;;10.40;4.00;;;13.90;99.90;;;;;;5063109;28;20017;-69
2024/04/08 01:44:15;;;;;;;8.48;3.65;;;13.90;99.90;;;;;;5063083;28;20021;-70
2024/04/08 01:46:40;;;;;;;7.95;3.83;;;13.90;99.90;;;;;;5062697;28;20040;-69
2024/04/08 01:49:06;;;;;;;9.60;3.50;;;13.90;99.90;;;;;;5063045;28;20020;-70
2024/04/08 01:51:31;;;;;;;5.25;3.35;;;13.90;99.90;;;;;;5063238;28;20032;-69
2024/04/08 01:53:57;;;;;;;7.43;3.28;;;13.90;99.90;;;;;;5062471;28;20496;-70
2024/04/08 01:56:22;;;;;;;8.40;3.17;;;13.90;99.90;;;;;;5061621;28;20108;-69
2024/04/08 01:58:48;;;;;;;7.55;3.00;;;13.90;99.90;;;;;;5060848;28;20075;-71
2024/04/08 02:01:14;;;;;;;5.95;3.20;;;13.90;99.90;;;;;;5057359;28;20017;-70
2024/04/08 02:03:39;;;;;;;8.55;3.13;;;13.90;99.90;;;;;;5059928;28;20056;-72
2024/04/08 02:06:05;;;;;;;8.27;3.13;;;13.90;99.90;;;;;;5061829;28;20021;-71
2024/04/08 02:08:30;;;;;;;9.15;3.00;;;13.90;99.90;;;;;;5060991;28;20092;-72
2024/04/08 02:10:56;;;;;;;12.65;3.55;;;13.90;99.90;;;;;;5059347;28;20032;-70
2024/04/08 02:13:21;;;;;;;5.00;2.78;;;13.90;99.90;;;;;;5059099;28;20039;-69
2024/04/08 02:15:47;;;;;;;11.27;3.63;;;14.00;99.90;;;;;;5059988;28;20387;-70
2024/04/08 02:18:13;;;;;;;6.47;3.35;;;13.90;99.90;;;;;;5059507;28;20049;-71
2024/04/08 02:20:39;;;;;;;8.15;3.42;;;13.90;99.90;;;;;;5055732;28;20044;-71
2024/04/08 02:23:05;;;;;;;8.52;3.72;;;13.90;99.90;;;;;;5061368;28;20021;-71
2024/04/08 02:25:37;;;;;;;7.82;3.85;;;13.80;99.90;;;;;;5060910;28;20051;-71
2024/04/08 02:28:03;;;;;;;11.00;3.45;;;13.80;99.90;;;;;;5052263;28;20409;-70
2024/04/08 02:30:29;;;;;;;8.57;3.35;;;13.80;99.90;;;;;;5049458;28;20052;-70
2024/04/08 02:32:54;;;;;;;8.27;3.60;;;13.80;99.90;;;;;;5055085;28;20052;-72
2024/04/08 02:35:20;;;;;;;6.45;3.70;;;13.80;99.90;;;;;;5058858;28;20032;-70
2024/04/08 02:37:45;;;;;;;11.30;3.92;;;13.90;99.90;;;;;;5057899;28;20056;-70
2024/04/08 02:40:11;;;;;;;12.35;4.03;;;13.80;99.90;;;;;;5058654;28;20028;-70
2024/04/08 02:42:37;;;;;;;11.07;4.10;;;13.70;99.90;;;;;;5059598;28;20112;-69
2024/04/08 02:45:04;;;;;;;7.68;3.97;;;13.70;99.90;;;;;;5058472;28;20373;-70
2024/04/08 02:47:29;;;;;;;10.15;3.97;;;13.70;99.90;;;;;;5059829;28;20029;-70
2024/04/08 02:49:55;;;;;;;10.20;4.30;;;13.70;99.90;;;;;;5060670;28;20041;-70
2024/04/08 02:52:29;;;;;;;12.10;4.85;;;13.60;99.90;;;;;;5062197;28;20025;-71
2024/04/08 02:54:55;;;;;;;15.20;4.80;;;13.60;99.90;;;;;;5061489;28;20029;-71
2024/04/08 02:57:20;;;;;;;9.65;4.50;;;13.60;99.90;;;;;;5061242;28;20041;-70
2024/04/08 02:59:49;;;;;;;14.07;4.97;;;13.60;99.90;;;;;;5060982;28;20037;-69
2024/04/08 03:02:15;;;;;;;9.77;4.70;;;13.60;99.90;;;;;;5059128;28;20359;-70
2024/04/08 03:04:40;;;;;;;8.05;4.63;;;13.60;99.90;;;;;;5060741;28;20047;-70
2024/04/08 03:07:06;;;;;;;11.43;4.80;;;13.60;99.90;;;;;;5061725;28;20088;-69
2024/04/08 03:09:31;;;;;;;12.02;4.93;;;13.60;99.90;;;;;;5061030;28;20044;-70
2024/04/08 03:11:57;;;;;;;8.60;4.60;;;13.60;99.90;;;;;;5062025;28;20036;-70
2024/04/08 03:14:22;;;;;;;12.98;4.45;;;13.60;99.90;;;;;;5061579;28;20495;-69
2024/04/08 03:16:48;;;;;;;13.35;4.97;;;13.60;99.90;;;;;;5060254;28;20140;-69
2024/04/08 03:19:13;;;;;;;6.68;4.35;;;13.60;99.90;;;;;;5061850;28;20461;-70
2024/04/08 03:21:39;;;;;;;12.90;4.53;;;13.50;99.90;;;;;;5061666;28;20068;-70
2024/04/08 03:24:05;;;;;;;8.98;4.57;;;13.60;99.90;;;;;;5061926;28;20017;-70
2024/04/08 03:26:30;;;;;;;12.13;4.60;;;13.50;99.90;;;;;;5061961;28;20057;-70
2024/04/08 03:28:56;;;;;;;11.60;4.55;;;13.50;99.90;;;;;;5061491;28;20021;-70
2024/04/08 03:31:21;;;;;;;13.52;4.55;;;13.50;99.90;;;;;;5061452;28;20052;-69
2024/04/08 03:33:47;;;;;;;9.88;5.07;;;13.50;99.90;;;;;;5061818;28;20039;-69
2024/04/08 03:36:16;;;;;;;9.40;4.90;;;13.50;99.90;;;;;;5061352;28;20500;-69
2024/04/08 03:38:42;;;;;;;8.73;4.72;;;13.50;99.90;;;;;;5062711;28;20029;-69
2024/04/08 03:41:07;;;;;;;12.45;4.80;;;13.50;99.90;;;;;;5064257;28;20112;-70
2024/04/08 03:43:33;;;;;;;9.63;4.88;;;13.50;99.90;;;;;;5063803;28;20021;-71
2024/04/08 03:46:00;;;;;;;8.40;4.03;;;13.50;99.90;;;;;;5065153;28;20017;-69
2024/04/08 03:48:25;;;;;;;10.52;5.05;;;13.60;99.90;;;;;;5065221;28;20085;-70
2024/04/08 03:50:51;;;;;;;10.10;4.80;;;13.40;99.90;;;;;;5061001;28;20048;-71
2024/04/08 03:53:17;;;;;;;10.55;4.45;;;13.40;99.90;;;;;;5063289;28;20408;-71
2024/04/08 03:55:43;;;;;;;11.45;4.80;;;13.40;99.90;;;;;;5064839;28;20020;-73
2024/04/08 03:58:09;;;;;;;9.23;4.40;;;13.40;99.90;;;;;;5062712;28;20407;-70
2024/04/08 04:00:34;;;;;;;11.73;5.20;;;13.40;99.90;;;;;;5064184;28;20036;-70
2024/04/08 04:03:00;;;;;;;11.60;5.18;;;13.40;99.90;;;;;;5060032;28;20037;-70
2024/04/08 04:05:26;;;;;;;10.98;4.47;;;13.40;99.90;;;;;;5063377;28;20029;-69
2024/04/08 04:07:51;;;;;;;11.65;4.80;;;13.40;99.90;;;;;;5063322;28;20021;-70
2024/04/08 04:10:18;;;;;;;8.95;4.65;;;13.40;99.90;;;;;;5063400;28;20040;-71
2024/04/08 04:12:44;;;;;;;11.35;4.80;;;13.40;99.90;;;;;;5064563;28;20027;-71
2024/04/08 04:15:12;;;;;;;8.43;4.60;;;13.30;99.90;;;;;;5064551;28;20044;-71
2024/04/08 04:17:38;;;;;;;12.70;4.80;;;13.20;99.90;;;;;;5062861;28;20069;-71
2024/04/08 04:20:06;;;;;;;9.60;5.25;;;13.30;99.90;;;;;;5063703;28;20037;-72
2024/04/08 04:22:32;;;;;;;10.30;5.88;;;13.20;99.90;;;;;;5064186;28;20487;-69
2024/04/08 04:24:57;;;;;;;11.07;6.00;;;13.20;99.90;;;;;;5063456;28;20032;-71
2024/04/08 04:27:23;;;;;;;10.38;6.05;;;13.20;99.90;;;;;;5062925;28;20033;-70
2024/04/08 04:29:49;;;;;;;12.73;5.80;;;13.20;99.90;;;;;;5063906;28;20071;-71
2024/04/08 04:32:14;;;;;;;10.70;5.65;;;13.20;99.90;;;;;;5064240;28;20370;-71
2024/04/08 04:34:40;;;;;;;10.25;5.32;;;13.20;99.90;;;;;;5064442;28;20485;-72
2024/04/08 04:37:05;;;;;;;12.98;6.25;;;13.20;99.90;;;;;;5064624;28;20037;-72
2024/04/08 04:39:31;;;;;;;11.40;5.93;;;13.20;99.90;;;;;;5060965;28;20025;-71
2024/04/08 04:41:57;;;;;;;11.68;6.18;;;13.20;99.90;;;;;;5058722;28;20028;-70
2024/04/08 04:44:22;;;;;;;13.95;6.40;;;13.20;99.90;;;;;;5061898;28;20025;-70
2024/04/08 04:46:48;;;;;;;14.63;7.65;;;13.20;99.90;;;;;;5063214;28;20051;-73
2024/04/08 04:49:14;;;;;;;14.32;7.80;;;13.20;99.90;;;;;;5061869;28;20037;-70
2024/04/08 04:51:40;;;;;;;14.27;7.10;;;13.20;99.90;;;;;;5062343;28;20036;-72
2024/04/08 04:54:05;;;;;;;13.32;7.88;;;13.20;99.90;;;;;;5061756;28;20092;-71
2024/04/08 04:56:31;;;;;;;13.65;8.07;;;13.20;99.90;;;;;;5062346;28;20104;-71
2024/04/08 04:58:57;;;;;;;17.85;8.02;;;13.20;99.90;;;;;;5061167;28;20541;-70
2024/04/08 05:01:22;;;;;;;14.70;7.55;;;13.20;99.90;;;;;;5055511;28;20031;-73
2024/04/08 05:03:48;;;;;;;17.73;8.30;;;13.20;99.90;;;;;;5058892;28;20050;-72
2024/04/08 05:06:14;;;;;;;17.10;7.93;;;13.20;99.90;;;;;;5062044;28;20477;-70
2024/04/08 05:08:40;;;;;;;14.60;7.40;;;13.20;99.90;;;;;;5061964;28;20041;-71
2024/04/08 05:11:06;;;;;;;13.20;6.93;;;13.20;99.90;;;;;;5062152;28;20036;-72
2024/04/08 05:13:31;;;;;;;15.52;6.80;;;13.20;99.90;;;;;;5063319;28;20060;-71
2024/04/08 05:16:02;;;;;;;14.77;7.10;;;13.20;99.90;;;;;;5063187;28;20036;-70
2024/04/08 05:18:28;;;;;;;11.13;6.30;;;13.20;99.90;;;;;;5062935;28;20402;-71
2024/04/08 05:20:55;;;;;;;11.52;6.28;;;13.20;99.90;;;;;;5063086;28;20017;-70
2024/04/08 05:23:22;;;;;;;12.65;5.85;;;13.20;99.90;;;;;;5063633;28;20029;-71
2024/04/08 05:25:49;;;;;;;12.07;6.72;;;13.10;99.90;;;;;;5062358;28;20339;-72
2024/04/08 05:28:15;;;;;;;10.77;5.63;;;13.10;99.90;;;;;;5063072;28;20493;-69
2024/04/08 05:30:40;;;;;;;9.80;5.90;;;13.10;99.90;;;;;;5063454;28;20025;-71
2024/04/08 05:33:07;;;;;;;12.52;6.10;;;13.10;99.90;;;;;;5062087;28;20044;-71
2024/04/08 05:35:32;;;;;;;13.02;5.85;;;13.20;99.90;;;;;;5062925;28;20100;-71
2024/04/08 05:37:58;;;;;;;10.77;5.47;;;13.20;99.90;;;;;;5061827;28;20543;-72
2024/04/08 05:40:24;;;;;;;10.77;5.10;;;13.20;99.90;;;;;;5062042;28;20080;-71
2024/04/08 05:42:50;;;;;;;8.50;5.30;;;13.20;99.90;;;;;;5061004;28;20092;-70
2024/04/08 05:45:16;;;;;;;9.90;5.50;;;13.20;99.90;;;;;;5062817;28;20035;-71
2024/04/08 05:47:41;;;;;;;9.60;5.38;;;13.20;99.90;;;;;;5061356;28;20013;-71
2024/04/08 05:50:07;;;;;;;11.25;4.70;;;13.30;99.90;;;;;;5063014;28;20028;-70
2024/04/08 05:52:33;;;;;;;10.43;5.30;;;13.30;99.90;;;;;;5063295;28;20028;-70
2024/04/08 05:54:59;;;;;;;9.85;5.20;;;13.20;99.90;;;;;;5061514;28;20013;-70
2024/04/08 05:57:25;;;;;;;13.63;5.38;;;13.30;99.90;;;;;;5062737;28;20433;-71
2024/04/08 05:59:51;;;;;;;8.75;4.60;;;13.30;99.90;;;;;;5062552;28;20040;-70
2024/04/08 06:02:17;;;;;;;13.88;4.88;;;13.30;99.90;;;;;;5062183;28;20036;-71
2024/04/08 06:04:42;;;;;;;10.38;4.85;;;13.30;99.90;;;;;;5062379;28;20036;-70
2024/04/08 06:07:08;;;;;;;11.95;5.20;;;13.30;99.90;;;;;;5062895;28;20100;-70
2024/04/08 06:09:34;;;;;;;11.82;4.60;;;13.40;99.90;;;;;;5062413;28;20483;-72
2024/04/08 06:12:00;;;;;;;12.00;4.82;;;13.40;99.90;;;;;;5062865;28;20013;-70
2024/04/08 06:14:26;;;;;;;11.65;5.10;;;13.50;99.90;;;;;;5061213;28;20101;-72
2024/04/08 06:16:52;;;;;;;8.95;4.35;;;13.50;99.90;;;;;;5060531;28;20109;-71
2024/04/08 06:20:56;;;;;;;11.25;4.95;;;13.50;99.90;;;;;;5535608;25;20092;-70
2024/04/08 06:23:22;;;;;;;11.20;4.38;;;13.60;99.90;;;;;;5497231;26;20006;-70
2024/04/08 06:25:57;;;;;;;14.23;5.43;;;13.60;99.90;;;;;;5497962;25;20012;-70
2024/04/08 06:28:23;;;;;;;10.32;5.07;;;13.60;99.90;;;;;;5497602;25;20044;-71
2024/04/08 06:30:48;;;;;;;11.23;5.28;;;13.60;99.90;;;;;;5497136;26;20010;-72
2024/04/08 06:33:14;;;;;;;11.52;6.07;;;13.60;99.90;;;;;;5497807;26;20047;-72
2024/04/08 06:35:43;;;;;;;17.67;6.40;;;13.60;99.90;;;;;;5497779;26;20006;-72
2024/04/08 06:38:10;;;;;;;18.00;6.80;;;13.70;99.90;;;;;;5497858;26;20018;-70
2024/04/08 06:40:38;;;;;;;14.45;6.10;;;13.80;99.90;;;;;;5497685;25;20018;-70
2024/04/08 06:43:04;;;;;;;11.40;5.32;;;13.80;99.90;;;;;;5497187;26;20056;-69
2024/04/08 06:45:29;;;;;;;11.23;5.28;;;13.80;99.90;;;;;;5496342;26;20034;-69
2024/04/08 06:47:55;;;;;;;14.15;6.30;;;13.90;99.90;;;;;;5497803;26;20002;-69
2024/04/08 06:50:21;;;;;;;11.80;5.63;;;13.90;99.90;;;;;;5497458;26;20013;-70
2024/04/08 06:52:47;;;;;;;9.13;4.90;;;14.00;99.90;;;;;;5465691;26;20013;-71
2024/04/08 06:55:12;;;;;;;11.35;4.97;;;14.00;99.90;;;;;;5497550;26;19994;-70
2024/04/08 06:57:38;;;;;;;13.13;5.20;;;14.00;99.90;;;;;;5497255;26;20009;-70
2024/04/08 07:00:04;;;;;;;9.98;5.60;;;14.10;99.90;;;;;;5465505;26;20001;-70
2024/04/08 07:02:29;;;;;;;11.80;4.93;;;14.10;99.90;;;;;;5465523;26;20002;-69
2024/04/08 07:04:55;;;;;;;9.23;5.15;;;14.20;99.90;;;;;;5497107;25;20002;-70
2024/04/08 07:07:20;;;;;;;10.45;4.70;;;14.30;99.90;;;;;;5497363;25;20013;-71
2024/04/08 07:09:46;;;;;;;7.75;4.60;;;14.40;99.90;;;;;;5468388;25;20009;-69
2024/04/08 07:12:12;;;;;;;13.85;5.75;;;14.50;99.90;;;;;;5459847;26;20428;-70
2024/04/08 07:14:38;;;;;;;8.55;4.57;;;14.50;99.90;;;;;;5460876;26;20010;-69
2024/04/08 07:17:03;;;;;;;10.68;4.50;;;14.60;99.90;;;;;;5460642;26;20035;-69
2024/04/08 07:19:29;;;;;;;9.00;4.18;;;14.60;99.90;;;;;;5460511;26;19998;-70
2024/04/08 07:21:55;;;;;;;9.35;4.45;;;14.50;99.90;;;;;;5460927;26;20002;-70
2024/04/08 07:24:20;;;;;;;7.75;3.75;;;14.50;99.90;;;;;;5428692;26;20092;-70
2024/04/08 07:26:46;;;;;;;7.90;3.90;;;14.50;99.90;;;;;;5460459;26;20022;-69
2024/04/08 07:29:12;;;;;;;7.65;4.03;;;14.70;99.90;;;;;;5428423;26;20088;-69
2024/04/08 07:31:37;;;;;;;7.13;4.00;;;14.80;99.90;;;;;;5447434;26;20003;-72
2024/04/08 07:34:03;;;;;;;6.93;4.30;;;14.80;99.90;;;;;;5445141;26;20013;-69
2024/04/08 07:36:29;;;;;;;10.50;3.75;;;14.80;99.90;;;;;;5445073;26;20043;-70
2024/04/08 07:38:54;;;;;;;8.18;3.50;;;14.80;99.90;;;;;;5444357;26;20002;-69
2024/04/08 07:41:21;;;;;;;8.70;3.92;;;14.80;99.90;;;;;;5444010;26;20006;-69
2024/04/08 07:43:47;;;;;;;5.95;3.65;;;14.90;99.90;;;;;;5444354;26;20015;-69
2024/04/08 07:46:15;;;;;;;10.25;4.00;;;14.90;99.90;;;;;;5444105;26;20026;-69
2024/04/08 07:48:41;;;;;;;6.80;3.28;;;14.90;99.90;;;;;;5444592;26;20044;-71
2024/04/08 07:51:06;;;;;;;7.50;3.65;;;15.10;99.90;;;;;;5444804;26;19996;-72
2024/04/08 07:53:32;;;;;;;8.73;3.90;;;15.30;99.90;;;;;;5444961;26;20007;-72
2024/04/08 07:56:02;;;;;;;8.52;3.08;;;15.50;99.90;;;;;;5443305;26;20014;-72
2024/04/08 07:58:29;;;;;;;5.25;3.10;;;15.60;99.90;;;;;;5445178;26;20017;-69
2024/04/08 08:00:59;;;;;;;8.43;3.20;;;15.80;99.90;;;;;;5413028;26;20018;-71
2024/04/08 08:03:26;;;;;;;5.82;2.78;;;15.90;99.90;;;;;;5445004;26;20004;-71
2024/04/08 08:05:53;;;;;;;4.90;2.30;;;15.90;99.90;;;;;;5412385;26;20016;-70
2024/04/08 08:08:18;;;;;;;6.18;2.75;;;16.00;99.90;;;;;;5444128;26;20018;-71
2024/04/08 08:10:45;;;;;;;6.75;1.98;;;16.10;99.90;;;;;;5412535;26;20386;-71
2024/04/08 08:13:11;;;;;;;6.47;2.22;;;16.30;99.90;;;;;;5444307;26;20015;-70
2024/04/08 08:15:37;;;;;;;5.57;2.28;;;16.30;99.90;;;;;;5444395;26;19999;-69
2024/04/08 08:18:02;;;;;;;6.35;2.47;;;16.50;99.90;;;;;;5444712;26;20052;-71
2024/04/08 08:20:28;;;;;;;5.90;2.28;;;16.60;99.90;;;;;;5443931;26;20014;-70
2024/04/08 08:22:56;;;;;;;5.70;2.50;;;16.70;99.90;;;;;;5443302;26;20661;-70
2024/04/08 08:25:23;;;;;;;4.82;2.03;;;16.90;99.90;;;;;;5444060;26;20007;-71
2024/04/08 08:27:49;;;;;;;2.75;2.10;;;17.00;99.90;;;;;;5443968;26;19999;-71
2024/04/08 08:30:14;;;;;;;5.88;2.25;;;17.20;99.90;;;;;;5444365;26;20010;-71
2024/04/08 08:32:40;;;;;;;4.65;2.00;;;17.30;99.90;;;;;;5444414;26;20019;-72
2024/04/08 08:35:06;;;;;;;4.50;1.70;;;17.30;99.90;;;;;;5443090;26;21485;-72
2024/04/08 08:37:31;;;;;;;4.30;1.80;;;17.20;99.90;;;;;;5412978;26;20017;-72
2024/04/08 08:39:57;;;;;;;4.72;1.60;;;17.10;99.90;;;;;;5412740;26;19999;-72
2024/04/08 08:42:28;;;;;;;2.95;1.80;;;17.10;99.90;;;;;;5443806;26;20019;-71
2024/04/08 08:44:56;;;;;;;3.60;1.88;;;17.30;99.90;;;;;;5412443;26;19999;-70
2024/04/08 08:47:22;;;;;;;5.88;2.08;;;17.40;99.90;;;;;;5444416;26;20003;-71
2024/04/08 08:49:52;;;;;;;4.22;1.73;;;17.50;99.90;;;;;;5443657;26;20039;-69
2024/04/08 08:52:21;;;;;;;3.70;1.80;;;17.70;99.90;;;;;;5444356;26;20018;-72
2024/04/08 08:54:51;;;;;;;4.40;2.03;;;17.80;99.90;;;;;;5443510;26;20031;-72
2024/04/08 08:57:17;;;;;;;3.90;2.05;;;17.80;99.90;;;;;;5443191;26;20011;-71
2024/04/08 08:59:44;;;;;;;3.88;1.60;;;17.80;99.90;;;;;;5412281;26;19995;-73
2024/04/08 09:02:14;;;;;;;2.47;1.70;;;17.70;99.90;;;;;;5443765;26;20440;-71
2024/04/08 09:04:41;;;;;;;2.55;1.42;;;17.60;99.90;;;;;;5443645;26;20011;-73
2024/04/08 09:07:07;;;;;;;3.47;1.13;;;17.60;99.90;;;;;;5443801;26;20006;-70
2024/04/08 09:09:33;;;;;;;4.95;1.40;;;17.50;99.90;;;;;;5442956;26;20011;-72
2024/04/08 09:11:59;;;;;;;5.18;1.65;;;17.40;99.90;;;;;;5443383;26;20004;-71
2024/04/08 09:14:28;;;;;;;2.58;1.30;;;17.40;99.90;;;;;;5444170;26;20000;-71
2024/04/08 09:17:06;;;;;;;6.60;1.60;;;17.40;99.90;;;;;;5443090;26;19995;-72
2024/04/08 09:19:32;;;;;;;6.35;1.50;;;17.40;99.90;;;;;;5442490;26;20000;-73
2024/04/08 09:21:58;;;;;;;4.65;1.58;;;17.40;99.90;;;;;;5443772;26;20003;-72
2024/04/08 09:24:24;;;;;;;3.45;1.50;;;17.50;99.90;;;;;;5442822;26;20014;-71
2024/04/08 09:26:52;;;;;;;5.90;1.77;;;17.60;99.90;;;;;;5443260;26;20002;-73
2024/04/08 09:29:17;;;;;;;5.28;1.52;;;17.70;99.90;;;;;;5440853;26;20015;-72
2024/04/08 09:31:43;;;;;;;3.30;1.58;;;17.90;99.90;;;;;;5443866;26;20000;-71
2024/04/08 09:34:09;;;;;;;2.88;1.70;;;18.10;99.90;;;;;;5411309;26;20007;-72
2024/04/08 09:36:36;;;;;;;6.80;1.90;;;18.20;99.90;;;;;;5443097;26;20019;-73
2024/04/08 09:39:04;;;;;;;5.15;1.80;;;18.50;99.90;;;;;;5442767;26;19998;-72
2024/04/08 09:41:31;;;;;;;4.45;1.70;;;18.60;99.90;;;;;;5442282;26;19999;-71
2024/04/08 09:43:58;;;;;;;4.47;1.52;;;18.70;99.90;;;;;;5442408;26;20011;-71
2024/04/08 09:46:26;;;;;;;4.40;1.50;;;18.80;99.90;;;;;;5442094;26;20049;-73
2024/04/08 09:48:52;;;;;;;2.58;1.30;;;18.90;99.90;;;;;;5442894;26;20015;-72
2024/04/08 09:51:20;;;;;;;5.05;1.70;;;19.10;99.90;;;;;;5443295;26;20031;-71
2024/04/08 09:53:45;;;;;;;4.32;1.65;;;19.30;99.90;;;;;;5441702;26;20029;-70
2024/04/08 09:56:15;;;;;;;4.32;1.70;;;19.60;99.90;;;;;;5442491;26;20000;-71
2024/04/08 09:58:44;;;;;;;4.68;1.80;;;19.70;99.90;;;;;;5443127;26;20049;-70
2024/04/08 10:01:12;;;;;;;3.28;1.90;;;19.70;99.90;;;;;;5441871;26;20053;-70
2024/04/08 10:04:08;;;;;;;4.40;1.90;;;19.70;99.90;;;;;;5442499;26;20003;-70
2024/04/08 10:06:34;;;;;;;5.32;1.83;;;19.50;99.90;;;;;;5441585;26;20068;-69
2024/04/08 10:09:00;;;;;;;6.03;1.70;;;19.40;99.90;;;;;;5442186;26;19995;-70
2024/04/08 10:11:26;;;;;;;3.92;1.52;;;19.30;99.90;;;;;;5411126;26;19992;-70
2024/04/08 10:13:51;;;;;;;5.07;1.67;;;19.20;99.90;;;;;;5436400;26;20053;-71
2024/04/08 10:16:18;;;;;;;2.72;1.52;;;19.10;99.90;;;;;;5440391;26;20060;-71
2024/04/08 10:18:57;;;;;;;5.60;1.80;;;19.10;99.90;;;;;;5405409;26;20003;-72
2024/04/08 10:21:25;;;;;;;5.45;2.00;;;19.00;99.90;;;;;;5442144;26;20007;-70
2024/04/08 10:23:52;;;;;;;5.18;2.17;;;18.90;99.90;;;;;;5409194;26;20452;-71
2024/04/08 10:26:18;;;;;;;4.18;1.80;;;18.80;99.90;;;;;;5441918;26;20003;-72
2024/04/08 10:28:44;;;;;;;2.95;1.60;;;18.80;99.90;;;;;;5441547;26;20013;-70
2024/04/08 10:31:12;;;;;;;4.05;1.85;;;18.80;99.90;;;;;;5440970;26;20021;-70
2024/04/08 10:33:38;;;;;;;3.85;1.85;;;19.10;99.90;;;;;;5442838;26;20003;-71
2024/04/08 10:36:04;;;;;;;3.17;1.90;;;19.20;99.90;;;;;;5407719;26;20010;-71
2024/04/08 10:38:30;;;;;;;3.28;1.90;;;19.40;99.90;;;;;;5440336;26;20018;-71
2024/04/08 10:40:56;;;;;;;4.70;1.90;;;19.40;99.90;;;;;;5408617;26;19999;-70
2024/04/08 10:43:23;;;;;;;2.55;1.60;;;19.30;99.90;;;;;;5435120;26;20007;-70
2024/04/08 10:45:55;;;;;;;3.53;1.70;;;19.30;99.90;;;;;;5441220;26;20017;-71
2024/04/08 10:48:21;;;;;;;3.95;1.90;;;19.10;99.90;;;;;;5441435;26;20007;-70
2024/04/08 10:50:49;;;;;;;3.83;1.60;;;19.20;99.90;;;;;;5442224;26;20003;-70
2024/04/08 10:53:16;;;;;;;6.97;2.15;;;19.10;99.90;;;;;;5440669;26;20005;-70
2024/04/08 10:55:41;;;;;;;3.67;2.08;;;19.30;99.90;;;;;;5410298;26;20006;-70
2024/04/08 10:58:08;;;;;;;3.80;1.52;;;19.30;99.90;;;;;;5441419;26;19999;-71
2024/04/08 11:00:33;;;;;;;4.15;1.75;;;19.30;99.90;;;;;;5441763;26;20014;-71
2024/04/08 11:02:59;;;;;;;3.70;2.00;;;19.30;99.90;;;;;;5441759;26;19996;-71
2024/04/08 11:05:25;;;;;;;4.57;1.42;;;19.20;99.90;;;;;;5441469;26;19999;-71
2024/04/08 11:07:51;;;;;;;4.30;1.80;;;19.20;99.90;;;;;;5445248;26;20003;-71
2024/04/08 11:10:18;;;;;;;2.80;1.45;;;19.20;99.90;;;;;;5413407;26;20627;-71
2024/04/08 11:12:44;;;;;;;7.35;1.90;;;19.00;99.90;;;;;;5444354;26;20454;-70
2024/04/08 11:15:12;;;;;;;3.15;1.83;;;19.10;99.90;;;;;;5444142;26;19996;-71
2024/04/08 11:17:38;;;;;;;5.90;2.33;;;19.00;99.90;;;;;;5444310;26;20327;-71
2024/04/08 11:20:08;;;;;;;2.78;1.95;;;19.00;99.90;;;;;;5444739;26;20018;-70
2024/04/08 11:22:34;;;;;;;3.88;1.65;;;19.00;99.90;;;;;;5441814;26;20011;-69
2024/04/08 11:25:00;;;;;;;5.72;1.90;;;19.00;99.90;;;;;;5443102;26;20109;-70
2024/04/08 11:27:26;;;;;;;6.85;1.80;;;18.90;99.90;;;;;;5445727;26;20011;-69
2024/04/08 11:29:52;;;;;;;4.55;2.10;;;18.80;99.90;;;;;;5412202;26;20538;-70
2024/04/08 11:32:22;;;;;;;3.88;1.58;;;18.80;99.90;;;;;;5444683;26;20000;-69
2024/04/08 11:34:49;;;;;;;5.40;1.70;;;18.80;99.90;;;;;;5445279;26;20014;-70
2024/04/08 11:37:14;;;;;;;3.13;1.50;;;18.90;99.90;;;;;;5444749;26;19998;-69
2024/04/08 11:39:42;;;;;;;5.47;1.90;;;19.00;99.90;;;;;;5444720;26;20002;-71
2024/04/08 11:42:08;;;;;;;4.85;1.55;;;19.10;99.90;;;;;;5412117;26;20010;-71
2024/04/08 11:44:35;;;;;;;8.15;2.00;;;19.10;99.90;;;;;;5443050;26;20003;-71
2024/04/08 11:47:02;;;;;;;3.03;1.77;;;19.10;99.90;;;;;;5443777;26;20015;-71
2024/04/08 11:49:30;;;;;;;5.03;1.58;;;19.10;99.90;;;;;;5444599;26;20018;-70
2024/04/08 11:51:56;;;;;;;9.23;1.90;;;19.10;99.90;;;;;;5444581;26;20014;-70
2024/04/08 11:54:22;;;;;;;6.18;1.90;;;19.10;99.90;;;;;;5435813;26;19995;-71
2024/04/08 11:56:47;;;;;;;3.45;1.48;;;19.00;99.90;;;;;;5443021;26;20455;-71
2024/04/08 11:59:13;;;;;;;1.85;1.30;;;19.00;99.90;;;;;;5413299;26;20048;-71
2024/04/08 12:01:41;;;;;;;3.05;1.50;;;19.10;99.90;;;;;;5443573;26;20008;-72
2024/04/08 12:04:08;;;;;;;5.57;2.00;;;19.10;99.90;;;;;;5438766;26;20068;-72
2024/04/08 12:06:33;;;;;;;5.50;1.90;;;19.20;99.90;;;;;;5412945;26;19996;-70
2024/04/08 12:08:59;;;;;;;3.83;1.60;;;19.30;99.90;;;;;;5443080;26;20101;-71
2024/04/08 12:11:25;;;;;;;4.68;1.70;;;19.40;99.90;;;;;;5444251;26;20003;-70
2024/04/08 12:13:51;;;;;;;3.63;1.40;;;19.60;99.90;;;;;;5441228;26;20004;-71
2024/04/08 12:16:17;;;;;;;5.45;1.80;;;19.60;99.90;;;;;;5442239;26;19998;-71
2024/04/08 12:18:43;;;;;;;2.88;1.60;;;19.60;99.90;;;;;;5441954;26;19994;-71
2024/04/08 12:21:10;;;;;;;4.45;1.65;;;19.60;99.90;;;;;;5411770;26;20007;-70
2024/04/08 12:23:36;;;;;;;4.65;1.58;;;19.60;99.90;;;;;;5411231;26;20011;-72
2024/04/08 12:26:01;;;;;;;2.85;1.50;;;19.50;99.90;;;;;;5443707;26;19999;-71
2024/04/08 12:28:27;;;;;;;4.15;1.73;;;19.40;99.90;;;;;;5441972;26;20011;-70
2024/04/08 12:30:53;;;;;;;3.78;1.58;;;19.30;99.90;;;;;;5402102;26;20000;-71
2024/04/08 12:33:22;;;;;;;6.22;1.63;;;19.40;99.90;;;;;;5408046;26;19996;-72
2024/04/08 12:35:48;;;;;;;5.68;1.60;;;19.30;99.90;;;;;;5433915;26;19995;-72
2024/04/08 12:38:14;;;;;;;9.30;1.75;;;19.30;99.90;;;;;;5410347;26;20010;-71
2024/04/08 12:40:40;;;;;;;4.95;1.30;;;19.40;99.90;;;;;;5411354;26;20011;-71